createdAt,value
2022-12-01T00:02:29.450Z,68.83
2022-12-01T00:07:31.164Z,68.62
2022-12-01T00:12:32.807Z,68.75
2022-12-01T00:17:34.401Z,68.78
2022-12-01T00:22:36.043Z,68.64
2022-12-01T00:27:37.661Z,68.53
2022-12-01T00:32:39.269Z,68.65
2022-12-01T00:37:41.191Z,68.75
2022-12-01T00:42:42.784Z,68.52
2022-12-01T00:47:44.393Z,68.50
2022-12-01T00:52:46.000Z,68.52
2022-12-01T00:57:47.609Z,68.41
2022-12-01T01:02:49.264Z,68.22
2022-12-01T01:07:50.986Z,68.24
2022-12-01T01:12:52.792Z,68.00
2022-12-01T01:17:54.382Z,68.25
2022-12-01T01:22:56.007Z,67.98
2022-12-01T01:27:57.584Z,67.90
2022-12-01T01:32:59.254Z,67.78
2022-12-01T01:38:00.906Z,67.88
2022-12-01T01:43:02.486Z,68.10
2022-12-01T01:48:04.508Z,68.50
2022-12-01T01:53:10.927Z,68.77
2022-12-01T01:58:12.561Z,68.44
2022-12-01T02:03:18.395Z,68.61
2022-12-01T02:08:19.968Z,68.59
2022-12-01T02:13:36.355Z,68.85
2022-12-01T02:18:56.892Z,69.05
2022-12-01T02:24:01.332Z,68.85
2022-12-01T02:29:27.178Z,69.03
2022-12-01T02:34:43.571Z,68.72
2022-12-01T02:40:05.380Z,69.09
2022-12-01T02:45:14.850Z,68.85
2022-12-01T02:50:17.130Z,68.67
2022-12-01T02:55:18.812Z,68.82
2022-12-01T03:00:20.444Z,68.60
2022-12-01T03:05:46.446Z,68.71
2022-12-01T03:10:55.618Z,69.23
2022-12-01T03:16:15.792Z,69.59
2022-12-01T03:21:30.678Z,69.72
2022-12-01T03:26:36.424Z,69.75
2022-12-01T03:31:45.205Z,70.19
2022-12-01T03:37:05.233Z,70.32
2022-12-01T03:42:18.123Z,70.08
2022-12-01T03:47:22.799Z,70.35
2022-12-01T03:52:43.124Z,70.73
2022-12-01T03:57:56.851Z,70.36
2022-12-01T04:03:02.208Z,70.19
2022-12-01T04:08:04.096Z,70.07
2022-12-01T04:13:05.758Z,70.23
2022-12-01T04:18:07.349Z,70.00
2022-12-01T04:23:09.640Z,70.18
2022-12-01T04:28:11.228Z,69.90
2022-12-01T04:33:12.811Z,69.99
2022-12-01T04:38:14.406Z,70.00
2022-12-01T04:43:15.977Z,70.08
2022-12-01T04:48:17.603Z,69.96
2022-12-01T04:53:19.196Z,69.82
2022-12-01T04:58:20.804Z,69.74
2022-12-01T05:03:22.418Z,69.90
2022-12-01T05:08:24.048Z,69.88
2022-12-01T05:13:26.031Z,69.75
2022-12-01T05:18:27.630Z,69.93
2022-12-01T05:23:31.772Z,69.82
2022-12-01T05:28:33.425Z,69.82
2022-12-01T05:33:35.014Z,69.65
2022-12-01T05:38:36.594Z,69.59
2022-12-01T05:43:38.201Z,69.38
2022-12-01T05:48:39.783Z,69.54
2022-12-01T05:53:41.556Z,69.40
2022-12-01T05:58:43.189Z,69.30
2022-12-01T06:03:44.893Z,69.51
2022-12-01T06:08:46.519Z,69.38
2022-12-01T06:13:48.139Z,69.42
2022-12-01T06:18:49.720Z,69.20
2022-12-01T06:23:51.327Z,69.41
2022-12-01T06:28:52.934Z,69.52
2022-12-01T06:33:54.561Z,69.69
2022-12-01T06:38:56.165Z,69.64
2022-12-01T06:43:57.745Z,69.65
2022-12-01T06:48:59.357Z,69.57
2022-12-01T06:54:05.512Z,69.62
2022-12-01T06:59:07.881Z,69.53
2022-12-01T07:04:09.640Z,69.62
2022-12-01T07:09:11.322Z,69.61
2022-12-01T07:14:26.801Z,69.30
2022-12-01T07:19:28.411Z,69.19
2022-12-01T07:24:30.906Z,69.50
2022-12-01T07:29:32.544Z,69.40
2022-12-01T07:34:34.186Z,69.43
2022-12-01T07:39:35.855Z,69.24
2022-12-01T07:44:37.458Z,69.90
2022-12-01T07:49:39.094Z,69.91
2022-12-01T07:54:40.777Z,69.87
2022-12-01T07:59:42.386Z,69.54
2022-12-01T08:04:44.025Z,69.23
2022-12-01T08:09:45.823Z,69.25
2022-12-01T08:14:47.396Z,69.18
2022-12-01T08:19:49.178Z,69.31
2022-12-01T08:24:50.947Z,69.80
2022-12-01T08:29:52.538Z,69.84
2022-12-01T08:34:54.260Z,69.62
2022-12-01T08:39:55.877Z,69.27
2022-12-01T08:44:57.527Z,69.53
2022-12-01T08:49:59.153Z,69.42
2022-12-01T08:55:01.348Z,69.52
2022-12-01T09:00:03.579Z,69.92
2022-12-01T09:05:05.789Z,69.23
2022-12-01T09:10:07.949Z,69.59
2022-12-01T09:15:09.996Z,69.35
2022-12-01T09:20:12.164Z,69.29
2022-12-01T09:25:14.799Z,69.54
2022-12-01T09:30:16.516Z,69.45
2022-12-01T09:35:23.111Z,69.73
2022-12-01T09:40:48.199Z,69.47
2022-12-01T09:46:02.461Z,69.48
2022-12-01T09:51:04.253Z,68.79
2022-12-01T09:56:12.712Z,68.65
2022-12-01T10:01:21.704Z,69.03
2022-12-01T10:06:45.294Z,68.39
2022-12-01T10:11:48.505Z,67.74
2022-12-01T10:16:58.881Z,67.65
2022-12-01T10:22:36.101Z,67.48
2022-12-01T10:28:14.976Z,66.84
2022-12-01T10:33:25.269Z,66.68
2022-12-01T10:38:32.599Z,67.01
2022-12-01T10:43:45.447Z,66.58
2022-12-01T10:48:58.763Z,66.24
2022-12-01T10:54:08.337Z,65.33
2022-12-01T10:59:36.018Z,65.45
2022-12-01T11:04:47.593Z,65.30
2022-12-01T11:10:16.342Z,65.35
2022-12-01T11:15:31.320Z,64.92
2022-12-01T11:20:38.259Z,64.84
2022-12-01T11:25:39.923Z,65.00
2022-12-01T11:30:41.559Z,64.04
2022-12-01T11:35:50.494Z,63.09
2022-12-01T11:40:57.769Z,63.42
2022-12-01T11:46:06.688Z,62.45
2022-12-01T11:51:15.470Z,63.07
2022-12-01T11:56:28.648Z,62.01
2022-12-01T12:01:45.957Z,61.70
2022-12-01T12:07:05.792Z,61.17
2022-12-01T12:12:10.061Z,61.71
2022-12-01T12:17:33.354Z,60.12
2022-12-01T12:22:55.241Z,60.91
2022-12-01T12:28:10.695Z,60.50
2022-12-01T12:33:18.290Z,61.57
2022-12-01T12:38:31.973Z,60.87
2022-12-01T12:44:02.338Z,60.10
2022-12-01T12:49:25.764Z,61.83
2022-12-01T12:54:55.383Z,60.24
2022-12-01T13:00:18.828Z,60.89
2022-12-01T13:05:23.455Z,61.20
2022-12-01T13:10:26.270Z,61.35
2022-12-01T13:15:29.583Z,60.57
2022-12-01T13:20:36.815Z,59.96
2022-12-01T13:25:40.985Z,60.64
2022-12-01T13:31:00.996Z,59.45
2022-12-01T13:36:44.734Z,60.48
2022-12-01T13:41:38.788Z,60.15
2022-12-01T13:46:44.530Z,60.06
2022-12-01T13:52:16.978Z,59.97
2022-12-01T13:57:27.325Z,58.39
2022-12-01T14:02:37.258Z,60.58
2022-12-01T14:07:40.143Z,60.29
2022-12-01T14:12:45.986Z,60.67
2022-12-01T14:17:58.260Z,61.25
2022-12-01T14:23:21.438Z,60.90
2022-12-01T14:29:00.966Z,60.77
2022-12-01T14:34:08.337Z,61.09
2022-12-01T14:39:15.069Z,60.66
2022-12-01T14:44:31.318Z,61.05
2022-12-01T14:49:41.160Z,60.71
2022-12-01T14:54:48.864Z,60.48
2022-12-01T15:00:23.279Z,59.80
2022-12-01T15:05:30.398Z,61.28
2022-12-01T15:10:37.037Z,61.28
2022-12-01T15:15:50.946Z,61.10
2022-12-01T15:20:59.546Z,61.96
2022-12-01T15:26:01.211Z,61.51
2022-12-01T15:31:11.362Z,61.57
2022-12-01T15:36:13.721Z,60.81
2022-12-01T15:41:30.177Z,61.41
2022-12-01T15:46:34.588Z,60.59
2022-12-01T15:51:36.654Z,61.11
2022-12-01T15:56:41.133Z,60.55
2022-12-01T16:01:44.280Z,60.83
2022-12-01T16:07:08.154Z,60.89
2022-12-01T16:12:09.685Z,61.30
2022-12-01T16:17:11.421Z,60.97
2022-12-01T16:22:14.526Z,61.29
2022-12-01T16:27:25.685Z,61.24
2022-12-01T16:32:40.618Z,61.68
2022-12-01T16:37:42.529Z,61.55
2022-12-01T16:42:44.427Z,61.69
2022-12-01T16:47:49.649Z,61.77
2022-12-01T16:52:51.239Z,61.78
2022-12-01T16:57:52.921Z,61.97
2022-12-01T17:02:54.593Z,61.20
2022-12-01T17:07:56.754Z,61.07
2022-12-01T17:12:58.984Z,61.55
2022-12-01T17:18:00.789Z,61.44
2022-12-01T17:23:02.705Z,61.41
2022-12-01T17:28:04.305Z,61.50
2022-12-01T17:33:05.912Z,61.55
2022-12-01T17:38:08.058Z,61.35
2022-12-01T17:43:09.758Z,61.19
2022-12-01T17:48:11.336Z,61.39
2022-12-01T17:53:12.991Z,61.44
2022-12-01T17:58:14.784Z,61.50
2022-12-01T18:03:16.547Z,61.86
2022-12-01T18:08:18.193Z,61.41
2022-12-01T18:13:21.337Z,61.28
2022-12-01T18:18:24.776Z,61.51
2022-12-01T18:23:27.129Z,60.85
2022-12-01T18:28:28.739Z,61.16
2022-12-01T18:33:32.594Z,61.30
2022-12-01T18:38:35.385Z,60.51
2022-12-01T18:43:37.556Z,60.61
2022-12-01T18:48:44.666Z,60.66
2022-12-01T18:53:48.052Z,60.48
2022-12-01T18:58:57.846Z,60.60
2022-12-01T19:04:00.239Z,60.78
2022-12-01T19:09:03.713Z,60.79
2022-12-01T19:14:05.338Z,60.82
2022-12-01T19:19:11.074Z,61.27
2022-12-01T19:24:15.625Z,60.58
2022-12-01T19:29:17.270Z,60.95
2022-12-01T19:34:18.998Z,60.76
2022-12-01T19:39:20.648Z,60.50
2022-12-01T19:44:22.281Z,60.98
2022-12-01T19:49:23.923Z,60.75
2022-12-01T19:54:25.546Z,60.98
2022-12-01T19:59:27.190Z,61.01
2022-12-01T20:04:28.788Z,60.94
2022-12-01T20:09:30.386Z,60.76
2022-12-01T20:14:31.958Z,60.92
2022-12-01T20:19:33.565Z,60.96
2022-12-01T20:24:39.545Z,60.74
2022-12-01T20:29:41.259Z,60.85
2022-12-01T20:34:42.986Z,60.94
2022-12-01T20:39:44.567Z,60.75
2022-12-01T20:44:46.534Z,60.72
2022-12-01T20:49:48.200Z,61.20
2022-12-01T20:54:50.244Z,61.24
2022-12-01T20:59:52.108Z,61.04
2022-12-01T21:04:57.722Z,60.69
2022-12-01T21:10:01.134Z,60.59
2022-12-01T21:15:05.648Z,60.49
2022-12-01T21:20:11.628Z,60.80
2022-12-01T21:25:18.892Z,60.78
2022-12-01T21:30:30.023Z,60.80
2022-12-01T21:35:32.028Z,60.81
2022-12-01T21:40:34.097Z,60.82
2022-12-01T21:45:35.750Z,60.78
2022-12-01T21:50:37.526Z,60.70
2022-12-01T21:55:40.639Z,60.89
2022-12-01T22:00:42.673Z,61.09
2022-12-01T22:06:07.151Z,61.03
2022-12-01T22:11:20.770Z,60.93
2022-12-01T22:16:30.077Z,60.87
2022-12-01T22:21:33.063Z,60.81
2022-12-01T22:26:37.865Z,60.97
2022-12-01T22:31:39.591Z,61.41
2022-12-01T22:36:41.633Z,61.49
2022-12-01T22:41:44.291Z,61.18
2022-12-01T22:46:45.941Z,61.08
2022-12-01T22:51:51.842Z,61.31
2022-12-01T22:57:21.149Z,60.89
2022-12-01T23:02:28.756Z,61.06
2022-12-01T23:07:36.084Z,60.82
2022-12-01T23:12:38.695Z,61.18
2022-12-01T23:17:40.729Z,61.04
2022-12-01T23:22:42.315Z,61.14
2022-12-01T23:27:49.155Z,60.81
2022-12-01T23:33:13.088Z,60.98
2022-12-01T23:38:26.191Z,61.42
2022-12-01T23:43:31.766Z,60.82
2022-12-01T23:48:37.882Z,60.76
2022-12-01T23:53:40.314Z,61.23
2022-12-01T23:58:43.794Z,61.67
